BGCO2: Big Cabin Creek, Big Cabin, OK

Data processed at Tue May 21 2019 22:30


All information presented herein is the property of the government of the United States of America and may be revised or deleted at any time without prior notice.
Dissemination of this information without the expressed written consent of the Public Affairs Office, Tulsa District U.S. Army Corps of Engineers is strictly prohibited.
These data are gathered electronically and, as presented, have not undergone any form of quality control. These data are not guaranteed to be valid or correct.
Go to home page.
Go to station list.
Go to home page.

Downstream station:


Previous Day
Next Day
Current Day
    
SHEF ID:       BGCO2     Big Cabin Creek near Big Cabin,
STATION TYPE:  
Regulating: Stage =    34.00, Flow =    15636

               PRECIP     STAGE  STAGE(2)  RIV-FLOW  BAT-LOAD
                   in        ft        ft       cfs      volt
              Ccp-Rev   Ccp-Rev   Ccp-Rev   Ccp-Rev   Ccp-Rev
(US/Central)
05/21 00:00      0.29     31.56     31.73     13062     12.49
05/21 01:00      0.24     33.06     33.21     14626     12.49
05/21 02:00      0.44     34.23     34.36     15887     12.49
05/21 03:00      0.11     35.09     35.22     16836     12.49
05/21 04:00      0.00     36.22     36.36     18111     12.49
05/21 05:00      0.00     37.60     37.78     19865     12.49
05/21 06:00      0.00     38.94     39.17     22120     12.49
05/21 07:00      0.00     40.14     40.39     24454     12.49
05/21 08:00      0.14     41.30     41.59     26938     12.49
05/21 09:00      0.36     42.49     42.82     29642     12.49
05/21 10:00      0.27     43.72     43.89     32596     12.49
05/21 11:00      0.05     44.59     44.81     34785     12.49
05/21 12:00      0.00     45.33     45.56     36711     12.97
05/21 13:00      0.02     45.92     46.14     38291     12.73
05/21 14:00      0.05     46.39     46.60     39577     12.65
05/21 15:00      0.00     46.66     46.93     40327     12.57
05/21 16:00      0.00     46.92     47.16     41057     13.13
05/21 17:00      0.00     47.09     47.30     41539     12.97
05/21 18:00      0.00     47.16     47.42     41738     12.73
05/21 19:00      0.00     47.20     47.42     41852     12.73
05/21 20:00      0.00     47.21     47.40     41880     12.57
05/21 21:00      0.00     47.11     47.34     41595     12.57
05/21 22:00      ----      ----      ----      ----      ----
05/21 23:00      ----      ----      ----      ----      ----